sensor_id;sensor_type;location;lat;lon;timestamp;pressure;altitude;pressure_sealevel;temperature;humidity
6506;BME280;3286;49.858;8.768;2022-09-09T00:02:00;98718.56;;;20.96;46.47
6506;BME280;3286;49.858;8.768;2022-09-09T00:04:29;98719.03;;;20.62;47.30
6506;BME280;3286;49.858;8.768;2022-09-09T00:07:03;98706.63;;;20.92;46.72
6506;BME280;3286;49.858;8.768;2022-09-09T00:09:33;98709.84;;;20.70;47.42
6506;BME280;3286;49.858;8.768;2022-09-09T00:12:09;98722.03;;;20.54;47.10
6506;BME280;3286;49.858;8.768;2022-09-09T00:14:45;98710.72;;;20.52;47.43
6506;BME280;3286;49.858;8.768;2022-09-09T00:17:24;98711.44;;;20.90;46.46
6506;BME280;3286;49.858;8.768;2022-09-09T00:19:56;98700.94;;;20.88;46.13
6506;BME280;3286;49.858;8.768;2022-09-09T00:22:29;98707.03;;;21.07;45.92
6506;BME280;3286;49.858;8.768;2022-09-09T00:25:02;98714.41;;;21.24;46.01
6506;BME280;3286;49.858;8.768;2022-09-09T00:27:39;98704.75;;;20.80;47.07
6506;BME280;3286;49.858;8.768;2022-09-09T00:30:16;98702.44;;;20.96;46.99
6506;BME280;3286;49.858;8.768;2022-09-09T00:32:49;98706.09;;;21.02;46.78
6506;BME280;3286;49.858;8.768;2022-09-09T00:35:22;98693.34;;;20.97;46.27
6506;BME280;3286;49.858;8.768;2022-09-09T00:37:52;98704.75;;;20.80;47.04
6506;BME280;3286;49.858;8.768;2022-09-09T00:40:27;98710.38;;;20.60;47.79
6506;BME280;3286;49.858;8.768;2022-09-09T00:43:10;98710.53;;;21.08;46.95
6506;BME280;3286;49.858;8.768;2022-09-09T00:45:55;98707.34;;;20.87;47.45
6506;BME280;3286;49.858;8.768;2022-09-09T00:48:33;98713.97;;;20.54;47.97
6506;BME280;3286;49.858;8.768;2022-09-09T00:51:09;98714.28;;;20.76;47.56
6506;BME280;3286;49.858;8.768;2022-09-09T00:53:51;98718.56;;;20.84;47.24
6506;BME280;3286;49.858;8.768;2022-09-09T00:56:29;98716.38;;;20.74;47.69
6506;BME280;3286;49.858;8.768;2022-09-09T00:59:10;98714.63;;;20.68;47.63
6506;BME280;3286;49.858;8.768;2022-09-09T01:01:44;98712.25;;;20.90;47.10
6506;BME280;3286;49.858;8.768;2022-09-09T01:04:13;98712.75;;;21.11;46.73
6506;BME280;3286;49.858;8.768;2022-09-09T01:06:48;98709.72;;;20.77;47.62
6506;BME280;3286;49.858;8.768;2022-09-09T01:09:22;98704.09;;;20.85;47.23
6506;BME280;3286;49.858;8.768;2022-09-09T01:11:58;98711.75;;;20.51;47.79
6506;BME280;3286;49.858;8.768;2022-09-09T01:14:38;98703.28;;;20.96;46.64
6506;BME280;3286;49.858;8.768;2022-09-09T01:17:13;98707.28;;;21.18;46.39
6506;BME280;3286;49.858;8.768;2022-09-09T01:19:55;98705.97;;;21.20;45.92
6506;BME280;3286;49.858;8.768;2022-09-09T01:22:31;98703.63;;;20.88;46.55
6506;BME280;3286;49.858;8.768;2022-09-09T01:25:19;98695.34;;;21.02;46.22
6506;BME280;3286;49.858;8.768;2022-09-09T01:27:56;98699.19;;;20.82;46.56
6506;BME280;3286;49.858;8.768;2022-09-09T01:30:25;98702.81;;;20.99;46.41
6506;BME280;3286;49.858;8.768;2022-09-09T01:32:54;98694.91;;;20.74;46.95
6506;BME280;3286;49.858;8.768;2022-09-09T01:35:37;98690.50;;;20.80;46.71
6506;BME280;3286;49.858;8.768;2022-09-09T01:38:06;98698.19;;;21.31;45.60
6506;BME280;3286;49.858;8.768;2022-09-09T01:40:34;98698.97;;;20.95;46.14
6506;BME280;3286;49.858;8.768;2022-09-09T01:43:03;98693.13;;;20.98;46.61
6506;BME280;3286;49.858;8.768;2022-09-09T01:45:32;98693.34;;;20.97;46.64
6506;BME280;3286;49.858;8.768;2022-09-09T01:48:00;98688.97;;;20.72;47.09
6506;BME280;3286;49.858;8.768;2022-09-09T01:50:31;98688.13;;;21.02;46.56
6506;BME280;3286;49.858;8.768;2022-09-09T01:52:59;98692.72;;;20.52;47.41
6506;BME280;3286;49.858;8.768;2022-09-09T01:55:30;98679.91;;;20.97;46.26
6506;BME280;3286;49.858;8.768;2022-09-09T01:58:22;98689.50;;;20.93;47.02
6506;BME280;3286;49.858;8.768;2022-09-09T02:00:57;98689.25;;;20.82;47.07
6506;BME280;3286;49.858;8.768;2022-09-09T02:03:29;98687.19;;;20.66;47.45
6506;BME280;3286;49.858;8.768;2022-09-09T02:06:08;98694.59;;;20.82;47.00
6506;BME280;3286;49.858;8.768;2022-09-09T02:08:45;98688.91;;;20.60;47.56
6506;BME280;3286;49.858;8.768;2022-09-09T02:11:15;98700.16;;;20.69;47.55
6506;BME280;3286;49.858;8.768;2022-09-09T02:13:46;98693.03;;;20.63;47.57
6506;BME280;3286;49.858;8.768;2022-09-09T02:16:16;98699.72;;;20.41;48.09
6506;BME280;3286;49.858;8.768;2022-09-09T02:18:48;98706.94;;;20.41;48.31
6506;BME280;3286;49.858;8.768;2022-09-09T02:21:18;98706.59;;;20.19;48.47
6506;BME280;3286;49.858;8.768;2022-09-09T02:23:49;98697.97;;;20.47;47.86
6506;BME280;3286;49.858;8.768;2022-09-09T02:26:18;98701.84;;;20.51;48.12
6506;BME280;3286;49.858;8.768;2022-09-09T02:28:49;98706.19;;;20.95;47.15
6506;BME280;3286;49.858;8.768;2022-09-09T02:31:20;98713.78;;;20.37;48.19
6506;BME280;3286;49.858;8.768;2022-09-09T02:33:51;98711.69;;;20.69;47.64
6506;BME280;3286;49.858;8.768;2022-09-09T02:36:21;98709.06;;;20.51;47.98
6506;BME280;3286;49.858;8.768;2022-09-09T02:38:51;98712.75;;;20.38;48.29
6506;BME280;3286;49.858;8.768;2022-09-09T02:41:20;98715.75;;;20.60;47.76
6506;BME280;3286;49.858;8.768;2022-09-09T02:43:54;98721.66;;;20.20;48.85
6506;BME280;3286;49.858;8.768;2022-09-09T02:46:32;98723.34;;;20.14;48.67
6506;BME280;3286;49.858;8.768;2022-09-09T02:49:06;98720.53;;;20.27;48.55
6506;BME280;3286;49.858;8.768;2022-09-09T02:51:39;98715.44;;;20.19;48.54
6506;BME280;3286;49.858;8.768;2022-09-09T02:54:20;98707.41;;;20.19;48.61
6506;BME280;3286;49.858;8.768;2022-09-09T02:56:52;98714.72;;;20.31;48.24
6506;BME280;3286;49.858;8.768;2022-09-09T02:59:21;98710.25;;;20.55;47.58
6506;BME280;3286;49.858;8.768;2022-09-09T03:01:49;98712.44;;;20.46;47.72
6506;BME280;3286;49.858;8.768;2022-09-09T03:04:15;98700.47;;;20.30;48.47
6506;BME280;3286;49.858;8.768;2022-09-09T03:06:42;98715.63;;;20.24;48.55
6506;BME280;3286;49.858;8.768;2022-09-09T03:09:09;98706.38;;;20.20;48.77
6506;BME280;3286;49.858;8.768;2022-09-09T03:11:36;98701.50;;;20.29;48.14
6506;BME280;3286;49.858;8.768;2022-09-09T03:14:03;98706.13;;;20.40;48.22
6506;BME280;3286;49.858;8.768;2022-09-09T03:16:32;98702.78;;;19.89;49.85
6506;BME280;3286;49.858;8.768;2022-09-09T03:19:02;98703.59;;;19.90;49.06
6506;BME280;3286;49.858;8.768;2022-09-09T03:21:29;98701.31;;;20.12;48.83
6506;BME280;3286;49.858;8.768;2022-09-09T03:24:01;98695.78;;;19.88;49.46
6506;BME280;3286;49.858;8.768;2022-09-09T03:26:28;98702.06;;;20.01;49.03
6506;BME280;3286;49.858;8.768;2022-09-09T03:28:55;98708.19;;;20.38;48.09
6506;BME280;3286;49.858;8.768;2022-09-09T03:31:21;98703.47;;;20.22;48.71
6506;BME280;3286;49.858;8.768;2022-09-09T03:33:53;98706.22;;;20.15;48.85
6506;BME280;3286;49.858;8.768;2022-09-09T03:36:21;98711.22;;;20.11;48.75
6506;BME280;3286;49.858;8.768;2022-09-09T03:38:48;98710.25;;;19.87;49.63
6506;BME280;3286;49.858;8.768;2022-09-09T03:41:18;98697.53;;;20.01;49.36
6506;BME280;3286;49.858;8.768;2022-09-09T03:43:47;98703.69;;;19.83;49.79
6506;BME280;3286;49.858;8.768;2022-09-09T03:46:13;98711.69;;;19.64;50.53
6506;BME280;3286;49.858;8.768;2022-09-09T03:48:40;98712.13;;;20.05;49.15
6506;BME280;3286;49.858;8.768;2022-09-09T03:51:10;98712.41;;;19.97;49.72
6506;BME280;3286;49.858;8.768;2022-09-09T03:53:37;98712.31;;;19.85;49.77
6506;BME280;3286;49.858;8.768;2022-09-09T03:56:05;98706.38;;;19.83;50.14
6506;BME280;3286;49.858;8.768;2022-09-09T03:58:34;98703.38;;;19.73;50.31
6506;BME280;3286;49.858;8.768;2022-09-09T04:01:03;98702.41;;;19.86;49.96
6506;BME280;3286;49.858;8.768;2022-09-09T04:03:33;98696.69;;;19.82;49.79
6506;BME280;3286;49.858;8.768;2022-09-09T04:06:01;98689.50;;;20.01;49.29
6506;BME280;3286;49.858;8.768;2022-09-09T04:08:30;98700.78;;;19.66;50.46
6506;BME280;3286;49.858;8.768;2022-09-09T04:10:58;98693.13;;;19.88;49.74
6506;BME280;3286;49.858;8.768;2022-09-09T04:13:27;98693.41;;;19.80;49.69
6506;BME280;3286;49.858;8.768;2022-09-09T04:15:57;98689.91;;;19.61;50.36
6506;BME280;3286;49.858;8.768;2022-09-09T04:18:25;98686.50;;;19.72;50.09
6506;BME280;3286;49.858;8.768;2022-09-09T04:20:55;98682.13;;;19.96;49.64
6506;BME280;3286;49.858;8.768;2022-09-09T04:23:33;98691.25;;;19.26;51.23
6506;BME280;3286;49.858;8.768;2022-09-09T04:26:00;98689.81;;;19.67;50.50
6506;BME280;3286;49.858;8.768;2022-09-09T04:28:29;98693.09;;;19.69;50.21
6506;BME280;3286;49.858;8.768;2022-09-09T04:30:56;98694.69;;;19.96;49.66
6506;BME280;3286;49.858;8.768;2022-09-09T04:33:23;98694.63;;;20.03;49.27
6506;BME280;3286;49.858;8.768;2022-09-09T04:35:52;98690.47;;;20.37;48.77
6506;BME280;3286;49.858;8.768;2022-09-09T04:38:19;98699.06;;;20.09;49.01
6506;BME280;3286;49.858;8.768;2022-09-09T04:40:51;98700.72;;;20.10;49.25
6506;BME280;3286;49.858;8.768;2022-09-09T04:43:19;98702.13;;;20.12;49.29
6506;BME280;3286;49.858;8.768;2022-09-09T04:45:49;98698.94;;;20.04;49.32
6506;BME280;3286;49.858;8.768;2022-09-09T04:48:16;98700.81;;;20.03;49.35
6506;BME280;3286;49.858;8.768;2022-09-09T04:50:43;98700.56;;;19.86;49.69
6506;BME280;3286;49.858;8.768;2022-09-09T04:53:10;98697.06;;;19.67;50.24
6506;BME280;3286;49.858;8.768;2022-09-09T04:55:38;98699.53;;;19.43;50.78
6506;BME280;3286;49.858;8.768;2022-09-09T04:58:07;98715.16;;;19.46;50.83
6506;BME280;3286;49.858;8.768;2022-09-09T05:00:35;98711.53;;;19.40;51.38
6506;BME280;3286;49.858;8.768;2022-09-09T05:03:02;98715.59;;;18.92;52.94
6506;BME280;3286;49.858;8.768;2022-09-09T05:05:34;98724.75;;;18.78;53.17
6506;BME280;3286;49.858;8.768;2022-09-09T05:08:02;98721.59;;;17.96;55.77
6506;BME280;3286;49.858;8.768;2022-09-09T05:10:31;98728.78;;;18.16;55.29
6506;BME280;3286;49.858;8.768;2022-09-09T05:12:58;98728.28;;;18.33;54.87
6506;BME280;3286;49.858;8.768;2022-09-09T05:15:28;98737.69;;;18.42;54.77
6506;BME280;3286;49.858;8.768;2022-09-09T05:17:56;98737.13;;;18.72;54.07
6506;BME280;3286;49.858;8.768;2022-09-09T05:20:24;98738.91;;;18.85;53.52
6506;BME280;3286;49.858;8.768;2022-09-09T05:22:53;98747.28;;;19.02;53.22
6506;BME280;3286;49.858;8.768;2022-09-09T05:25:23;98736.19;;;19.24;52.47
6506;BME280;3286;49.858;8.768;2022-09-09T05:27:51;98741.41;;;19.12;52.48
6506;BME280;3286;49.858;8.768;2022-09-09T05:30:18;98758.09;;;18.75;53.85
6506;BME280;3286;49.858;8.768;2022-09-09T05:32:47;98755.53;;;18.55;54.60
6506;BME280;3286;49.858;8.768;2022-09-09T05:35:14;98752.50;;;18.83;53.71
6506;BME280;3286;49.858;8.768;2022-09-09T05:37:41;98752.81;;;18.94;53.54
6506;BME280;3286;49.858;8.768;2022-09-09T05:40:08;98755.19;;;19.16;52.90
6506;BME280;3286;49.858;8.768;2022-09-09T05:42:36;98770.63;;;19.46;51.82
6506;BME280;3286;49.858;8.768;2022-09-09T05:45:03;98765.13;;;19.08;53.12
6506;BME280;3286;49.858;8.768;2022-09-09T05:47:30;98763.22;;;19.16;52.81
6506;BME280;3286;49.858;8.768;2022-09-09T05:49:58;98764.19;;;18.89;53.66
6506;BME280;3286;49.858;8.768;2022-09-09T05:52:25;98770.22;;;19.17;53.84
6506;BME280;3286;49.858;8.768;2022-09-09T05:54:52;98765.59;;;19.31;53.55
6506;BME280;3286;49.858;8.768;2022-09-09T05:57:20;98773.94;;;19.41;52.48
6506;BME280;3286;49.858;8.768;2022-09-09T05:59:46;98779.53;;;19.39;52.49
6506;BME280;3286;49.858;8.768;2022-09-09T06:02:13;98776.09;;;18.93;54.08
6506;BME280;3286;49.858;8.768;2022-09-09T06:04:40;98782.66;;;19.62;52.42
6506;BME280;3286;49.858;8.768;2022-09-09T06:07:08;98774.22;;;19.77;51.95
6506;BME280;3286;49.858;8.768;2022-09-09T06:09:35;98783.13;;;19.52;52.73
6506;BME280;3286;49.858;8.768;2022-09-09T06:12:02;98784.22;;;19.44;52.56
6506;BME280;3286;49.858;8.768;2022-09-09T06:14:28;98775.09;;;19.27;53.05
6506;BME280;3286;49.858;8.768;2022-09-09T06:16:55;98772.38;;;19.77;51.48
6506;BME280;3286;49.858;8.768;2022-09-09T06:19:22;98771.56;;;20.02;50.92
6506;BME280;3286;49.858;8.768;2022-09-09T06:21:49;98772.06;;;20.11;50.86
6506;BME280;3286;49.858;8.768;2022-09-09T06:24:17;98772.97;;;20.23;50.41
6506;BME280;3286;49.858;8.768;2022-09-09T06:26:45;98779.06;;;19.68;51.90
6506;BME280;3286;49.858;8.768;2022-09-09T06:29:11;98779.84;;;19.75;51.67
6506;BME280;3286;49.858;8.768;2022-09-09T06:31:38;98774.81;;;20.41;49.82
6506;BME280;3286;49.858;8.768;2022-09-09T06:34:07;98774.38;;;20.07;50.51
6506;BME280;3286;49.858;8.768;2022-09-09T06:36:35;98762.38;;;20.10;50.83
6506;BME280;3286;49.858;8.768;2022-09-09T06:39:02;98778.25;;;20.30;50.46
6506;BME280;3286;49.858;8.768;2022-09-09T06:41:31;98779.00;;;20.00;51.19
6506;BME280;3286;49.858;8.768;2022-09-09T06:43:58;98780.63;;;20.20;50.47
6506;BME280;3286;49.858;8.768;2022-09-09T06:46:27;98784.72;;;20.41;49.83
6506;BME280;3286;49.858;8.768;2022-09-09T06:48:56;98789.41;;;20.27;50.82
6506;BME280;3286;49.858;8.768;2022-09-09T06:51:26;98789.19;;;20.47;50.00
6506;BME280;3286;49.858;8.768;2022-09-09T06:53:55;98782.13;;;20.34;50.03
6506;BME280;3286;49.858;8.768;2022-09-09T06:56:23;98790.16;;;20.34;50.06
6506;BME280;3286;49.858;8.768;2022-09-09T06:58:53;98785.31;;;20.43;49.68
6506;BME280;3286;49.858;8.768;2022-09-09T07:01:21;98786.75;;;20.27;50.38
6506;BME280;3286;49.858;8.768;2022-09-09T07:03:50;98786.03;;;20.50;50.00
6506;BME280;3286;49.858;8.768;2022-09-09T07:06:18;98787.56;;;20.09;51.09
6506;BME280;3286;49.858;8.768;2022-09-09T07:08:49;98790.13;;;20.22;51.06
6506;BME280;3286;49.858;8.768;2022-09-09T07:11:17;98790.41;;;19.89;51.43
6506;BME280;3286;49.858;8.768;2022-09-09T07:13:44;98798.03;;;19.66;52.17
6506;BME280;3286;49.858;8.768;2022-09-09T07:16:13;98795.75;;;19.95;51.46
6506;BME280;3286;49.858;8.768;2022-09-09T07:18:40;98788.38;;;20.09;51.00
6506;BME280;3286;49.858;8.768;2022-09-09T07:21:09;98781.69;;;20.00;51.41
6506;BME280;3286;49.858;8.768;2022-09-09T07:23:37;98781.38;;;20.27;50.58
6506;BME280;3286;49.858;8.768;2022-09-09T07:26:08;98790.94;;;20.04;51.05
6506;BME280;3286;49.858;8.768;2022-09-09T07:28:36;98774.88;;;20.16;51.09
6506;BME280;3286;49.858;8.768;2022-09-09T07:31:03;98783.31;;;20.01;51.00
6506;BME280;3286;49.858;8.768;2022-09-09T07:33:33;98796.00;;;20.12;51.28
6506;BME280;3286;49.858;8.768;2022-09-09T07:36:05;98792.31;;;20.63;49.66
6506;BME280;3286;49.858;8.768;2022-09-09T07:38:38;98788.63;;;20.26;50.45
6506;BME280;3286;49.858;8.768;2022-09-09T07:41:06;98785.03;;;20.33;50.20
6506;BME280;3286;49.858;8.768;2022-09-09T07:43:37;98801.56;;;20.11;51.10
6506;BME280;3286;49.858;8.768;2022-09-09T07:46:03;98808.03;;;20.59;49.77
6506;BME280;3286;49.858;8.768;2022-09-09T07:48:32;98809.91;;;20.40;50.55
6506;BME280;3286;49.858;8.768;2022-09-09T07:51:08;98801.41;;;20.06;51.57
6506;BME280;3286;49.858;8.768;2022-09-09T07:53:36;98811.97;;;20.56;50.33
6506;BME280;3286;49.858;8.768;2022-09-09T07:56:05;98792.19;;;20.39;50.62
6506;BME280;3286;49.858;8.768;2022-09-09T07:58:32;98801.31;;;20.87;49.44
6506;BME280;3286;49.858;8.768;2022-09-09T08:01:01;98800.50;;;20.68;50.07
6506;BME280;3286;49.858;8.768;2022-09-09T08:03:33;98812.25;;;21.16;48.83
6506;BME280;3286;49.858;8.768;2022-09-09T08:06:05;98806.31;;;21.26;48.84
6506;BME280;3286;49.858;8.768;2022-09-09T08:08:32;98816.59;;;20.68;49.90
6506;BME280;3286;49.858;8.768;2022-09-09T08:11:04;98827.06;;;21.07;49.15
6506;BME280;3286;49.858;8.768;2022-09-09T08:13:53;98831.69;;;20.99;48.96
6506;BME280;3286;49.858;8.768;2022-09-09T08:16:36;98826.91;;;21.44;48.07
6506;BME280;3286;49.858;8.768;2022-09-09T08:19:05;98826.41;;;20.93;48.78
6506;BME280;3286;49.858;8.768;2022-09-09T08:21:35;98828.28;;;20.92;49.12
6506;BME280;3286;49.858;8.768;2022-09-09T08:24:04;98827.28;;;21.48;48.43
6506;BME280;3286;49.858;8.768;2022-09-09T08:26:32;98831.25;;;21.45;48.10
6506;BME280;3286;49.858;8.768;2022-09-09T08:29:00;98831.75;;;21.78;47.21
6506;BME280;3286;49.858;8.768;2022-09-09T08:31:32;98822.53;;;21.74;47.36
6506;BME280;3286;49.858;8.768;2022-09-09T08:34:02;98837.03;;;21.73;47.18
6506;BME280;3286;49.858;8.768;2022-09-09T08:36:32;98837.44;;;21.03;47.62
6506;BME280;3286;49.858;8.768;2022-09-09T08:39:00;98822.13;;;20.54;48.36
6506;BME280;3286;49.858;8.768;2022-09-09T08:41:39;98838.28;;;21.16;47.59
6506;BME280;3286;49.858;8.768;2022-09-09T08:44:14;98845.69;;;21.32;47.20
6506;BME280;3286;49.858;8.768;2022-09-09T08:46:54;98836.44;;;21.28;46.68
6506;BME280;3286;49.858;8.768;2022-09-09T08:52:23;98842.97;;;20.90;48.12
6506;BME280;3286;49.858;8.768;2022-09-09T08:54:53;98841.03;;;21.39;46.65
6506;BME280;3286;49.858;8.768;2022-09-09T08:57:25;98839.84;;;21.66;46.07
6506;BME280;3286;49.858;8.768;2022-09-09T08:59:58;98844.69;;;21.57;46.68
6506;BME280;3286;49.858;8.768;2022-09-09T09:02:29;98834.94;;;21.98;45.36
6506;BME280;3286;49.858;8.768;2022-09-09T09:05:07;98828.72;;;22.46;44.40
6506;BME280;3286;49.858;8.768;2022-09-09T09:07:45;98836.50;;;22.71;43.50
6506;BME280;3286;49.858;8.768;2022-09-09T09:10:24;98822.59;;;22.91;43.42
6506;BME280;3286;49.858;8.768;2022-09-09T09:12:58;98831.56;;;22.97;43.50
6506;BME280;3286;49.858;8.768;2022-09-09T09:15:31;98833.81;;;23.17;42.75
6506;BME280;3286;49.858;8.768;2022-09-09T09:18:04;98828.41;;;23.97;41.41
6506;BME280;3286;49.858;8.768;2022-09-09T09:20:38;98824.59;;;23.76;41.63
6506;BME280;3286;49.858;8.768;2022-09-09T09:23:19;98825.28;;;23.88;41.32
6506;BME280;3286;49.858;8.768;2022-09-09T09:25:47;98814.78;;;23.87;41.31
6506;BME280;3286;49.858;8.768;2022-09-09T09:28:17;98811.03;;;24.27;39.66
6506;BME280;3286;49.858;8.768;2022-09-09T09:30:48;98809.84;;;24.01;40.74
6506;BME280;3286;49.858;8.768;2022-09-09T09:33:20;98814.88;;;23.41;42.31
6506;BME280;3286;49.858;8.768;2022-09-09T09:35:51;98812.81;;;23.65;42.49
6506;BME280;3286;49.858;8.768;2022-09-09T09:38:22;98818.09;;;22.97;43.11
6506;BME280;3286;49.858;8.768;2022-09-09T09:40:52;98815.78;;;23.18;43.11
6506;BME280;3286;49.858;8.768;2022-09-09T09:43:25;98817.13;;;23.03;42.92
6506;BME280;3286;49.858;8.768;2022-09-09T09:45:56;98817.22;;;22.50;43.74
6506;BME280;3286;49.858;8.768;2022-09-09T09:48:27;98819.91;;;22.91;43.17
6506;BME280;3286;49.858;8.768;2022-09-09T09:50:55;98817.75;;;23.22;42.75
6506;BME280;3286;49.858;8.768;2022-09-09T09:53:26;98810.66;;;22.58;43.89
6506;BME280;3286;49.858;8.768;2022-09-09T09:55:56;98813.41;;;22.10;45.25
6506;BME280;3286;49.858;8.768;2022-09-09T09:58:27;98802.19;;;22.66;44.24
6506;BME280;3286;49.858;8.768;2022-09-09T10:00:57;98800.97;;;23.03;42.84
6506;BME280;3286;49.858;8.768;2022-09-09T10:03:28;98805.25;;;23.16;42.64
6506;BME280;3286;49.858;8.768;2022-09-09T10:05:56;98806.22;;;23.56;42.22
6506;BME280;3286;49.858;8.768;2022-09-09T10:08:28;98806.44;;;23.37;42.37
6506;BME280;3286;49.858;8.768;2022-09-09T10:11:05;98811.25;;;22.89;43.52
6506;BME280;3286;49.858;8.768;2022-09-09T10:13:42;98811.56;;;22.93;42.40
6506;BME280;3286;49.858;8.768;2022-09-09T10:16:31;98808.69;;;23.97;41.00
6506;BME280;3286;49.858;8.768;2022-09-09T10:19:00;98813.91;;;24.43;39.83
6506;BME280;3286;49.858;8.768;2022-09-09T10:21:49;98813.50;;;23.95;38.85
6506;BME280;3286;49.858;8.768;2022-09-09T10:24:44;98799.28;;;24.16;39.91
6506;BME280;3286;49.858;8.768;2022-09-09T10:27:20;98796.94;;;23.86;40.00
6506;BME280;3286;49.858;8.768;2022-09-09T10:30:00;98801.88;;;23.72;39.97
6506;BME280;3286;49.858;8.768;2022-09-09T10:32:44;98807.56;;;23.24;40.95
6506;BME280;3286;49.858;8.768;2022-09-09T10:35:19;98800.16;;;23.03;41.69
6506;BME280;3286;49.858;8.768;2022-09-09T10:38:17;98791.03;;;23.33;40.49
6506;BME280;3286;49.858;8.768;2022-09-09T10:41:06;98795.88;;;23.19;41.48
6506;BME280;3286;49.858;8.768;2022-09-09T10:43:50;98793.31;;;23.12;42.88
6506;BME280;3286;49.858;8.768;2022-09-09T10:46:27;98801.75;;;22.86;43.45
6506;BME280;3286;49.858;8.768;2022-09-09T10:49:12;98789.13;;;22.87;43.52
6506;BME280;3286;49.858;8.768;2022-09-09T10:51:49;98782.19;;;23.37;41.83
6506;BME280;3286;49.858;8.768;2022-09-09T10:54:31;98767.00;;;22.44;45.18
6506;BME280;3286;49.858;8.768;2022-09-09T10:57:08;98755.81;;;23.39;43.82
6506;BME280;3286;49.858;8.768;2022-09-09T10:59:44;98767.00;;;23.02;46.62
6506;BME280;3286;49.858;8.768;2022-09-09T11:02:19;98774.06;;;23.20;45.44
6506;BME280;3286;49.858;8.768;2022-09-09T11:04:55;98779.31;;;22.40;45.86
6506;BME280;3286;49.858;8.768;2022-09-09T11:07:29;98779.22;;;22.35;46.19
6506;BME280;3286;49.858;8.768;2022-09-09T11:10:02;98780.03;;;22.76;47.38
6506;BME280;3286;49.858;8.768;2022-09-09T11:12:34;98767.69;;;23.09;47.66
6506;BME280;3286;49.858;8.768;2022-09-09T11:15:06;98777.25;;;23.17;48.73
6506;BME280;3286;49.858;8.768;2022-09-09T11:17:40;98783.97;;;21.80;53.02
6506;BME280;3286;49.858;8.768;2022-09-09T11:20:13;98782.59;;;20.80;54.27
6506;BME280;3286;49.858;8.768;2022-09-09T11:22:45;98772.13;;;21.45;52.83
6506;BME280;3286;49.858;8.768;2022-09-09T11:25:16;98778.72;;;21.73;51.25
6506;BME280;3286;49.858;8.768;2022-09-09T11:28:01;98772.41;;;21.67;52.70
6506;BME280;3286;49.858;8.768;2022-09-09T11:30:36;98774.25;;;21.79;52.25
6506;BME280;3286;49.858;8.768;2022-09-09T11:33:29;98764.03;;;22.28;49.82
6506;BME280;3286;49.858;8.768;2022-09-09T11:36:17;98776.63;;;21.87;50.76
6506;BME280;3286;49.858;8.768;2022-09-09T11:38:51;98774.34;;;22.90;49.32
6506;BME280;3286;49.858;8.768;2022-09-09T11:41:33;98781.84;;;22.88;45.42
6506;BME280;3286;49.858;8.768;2022-09-09T11:44:10;98761.88;;;23.29;43.42
6506;BME280;3286;49.858;8.768;2022-09-09T11:46:39;98769.47;;;23.04;42.92
6506;BME280;3286;49.858;8.768;2022-09-09T11:49:26;98760.94;;;23.58;43.40
6506;BME280;3286;49.858;8.768;2022-09-09T11:51:53;98770.00;;;23.69;42.48
6506;BME280;3286;49.858;8.768;2022-09-09T11:54:33;98762.06;;;23.79;40.06
6506;BME280;3286;49.858;8.768;2022-09-09T11:57:26;98763.31;;;24.33;39.65
6506;BME280;3286;49.858;8.768;2022-09-09T11:59:59;98772.94;;;24.73;38.32
6506;BME280;3286;49.858;8.768;2022-09-09T12:02:29;98763.00;;;24.29;39.36
6506;BME280;3286;49.858;8.768;2022-09-09T12:05:02;98761.06;;;24.25;39.10
6506;BME280;3286;49.858;8.768;2022-09-09T12:07:34;98766.66;;;23.44;39.16
6506;BME280;3286;49.858;8.768;2022-09-09T12:10:05;98773.09;;;23.43;40.42
6506;BME280;3286;49.858;8.768;2022-09-09T12:12:47;98765.69;;;23.34;40.50
6506;BME280;3286;49.858;8.768;2022-09-09T12:15:25;98766.91;;;23.43;41.13
6506;BME280;3286;49.858;8.768;2022-09-09T12:17:56;98762.66;;;23.64;40.71
6506;BME280;3286;49.858;8.768;2022-09-09T12:20:28;98760.03;;;23.52;40.90
6506;BME280;3286;49.858;8.768;2022-09-09T12:23:20;98769.84;;;23.41;40.99
6506;BME280;3286;49.858;8.768;2022-09-09T12:26:09;98760.59;;;23.20;40.52
6506;BME280;3286;49.858;8.768;2022-09-09T12:28:50;98767.53;;;23.16;41.17
6506;BME280;3286;49.858;8.768;2022-09-09T12:31:24;98769.13;;;23.00;41.67
6506;BME280;3286;49.858;8.768;2022-09-09T12:34:06;98762.25;;;22.46;42.75
6506;BME280;3286;49.858;8.768;2022-09-09T12:36:39;98759.78;;;22.45;42.54
6506;BME280;3286;49.858;8.768;2022-09-09T12:39:18;98763.22;;;22.69;41.88
6506;BME280;3286;49.858;8.768;2022-09-09T12:41:52;98759.06;;;22.78;40.84
6506;BME280;3286;49.858;8.768;2022-09-09T12:44:23;98755.84;;;22.64;41.04
6506;BME280;3286;49.858;8.768;2022-09-09T12:46:52;98750.41;;;22.47;40.28
6506;BME280;3286;49.858;8.768;2022-09-09T12:49:38;98758.09;;;22.84;40.24
6506;BME280;3286;49.858;8.768;2022-09-09T12:52:11;98753.06;;;22.59;39.89
6506;BME280;3286;49.858;8.768;2022-09-09T12:54:44;98753.69;;;22.37;40.44
6506;BME280;3286;49.858;8.768;2022-09-09T12:57:13;98756.03;;;22.75;39.86
6506;BME280;3286;49.858;8.768;2022-09-09T12:59:43;98757.44;;;22.48;40.58
6506;BME280;3286;49.858;8.768;2022-09-09T13:02:18;98753.66;;;22.08;41.55
6506;BME280;3286;49.858;8.768;2022-09-09T13:04:47;98754.75;;;22.36;40.73
6506;BME280;3286;49.858;8.768;2022-09-09T13:07:17;98752.25;;;22.58;40.91
6506;BME280;3286;49.858;8.768;2022-09-09T13:09:46;98743.75;;;22.50;40.95
6506;BME280;3286;49.858;8.768;2022-09-09T13:12:15;98729.94;;;22.75;40.08
6506;BME280;3286;49.858;8.768;2022-09-09T13:14:46;98741.72;;;22.86;39.64
6506;BME280;3286;49.858;8.768;2022-09-09T13:17:21;98723.41;;;22.71;39.59
6506;BME280;3286;49.858;8.768;2022-09-09T13:19:50;98731.69;;;22.98;38.62
6506;BME280;3286;49.858;8.768;2022-09-09T13:22:26;98734.00;;;22.78;38.13
6506;BME280;3286;49.858;8.768;2022-09-09T13:25:02;98732.50;;;22.99;38.20
6506;BME280;3286;49.858;8.768;2022-09-09T13:27:31;98741.91;;;22.67;38.69
6506;BME280;3286;49.858;8.768;2022-09-09T13:29:59;98747.34;;;22.55;38.36
6506;BME280;3286;49.858;8.768;2022-09-09T13:32:27;98743.69;;;22.62;39.26
6506;BME280;3286;49.858;8.768;2022-09-09T13:34:55;98741.47;;;22.18;39.65
6506;BME280;3286;49.858;8.768;2022-09-09T13:37:25;98729.78;;;22.65;39.17
6506;BME280;3286;49.858;8.768;2022-09-09T13:39:54;98729.06;;;23.04;39.32
6506;BME280;3286;49.858;8.768;2022-09-09T13:42:24;98733.66;;;22.57;40.41
6506;BME280;3286;49.858;8.768;2022-09-09T13:44:52;98733.38;;;22.29;42.00
6506;BME280;3286;49.858;8.768;2022-09-09T13:47:21;98740.13;;;22.32;42.69
6506;BME280;3286;49.858;8.768;2022-09-09T13:49:54;98734.84;;;22.78;40.95
6506;BME280;3286;49.858;8.768;2022-09-09T13:52:21;98752.34;;;22.11;42.00